sensor_id;sensor_type;location;lat;lon;timestamp;P1;durP1;ratioP1;P2;durP2;ratioP2
77598;SDS011;66758;52.078;5.070;2023-05-10T00:01:55;48.93;;;22.20;;
77598;SDS011;66758;52.078;5.070;2023-05-10T00:04:21;55.13;;;24.10;;
77598;SDS011;66758;52.078;5.070;2023-05-10T00:06:46;52.53;;;24.03;;
77598;SDS011;66758;52.078;5.070;2023-05-10T00:09:11;51.87;;;23.67;;
77598;SDS011;66758;52.078;5.070;2023-05-10T00:11:37;51.73;;;23.00;;
77598;SDS011;66758;52.078;5.070;2023-05-10T00:14:02;50.70;;;22.27;;
77598;SDS011;66758;52.078;5.070;2023-05-10T00:16:27;54.87;;;23.03;;
77598;SDS011;66758;52.078;5.070;2023-05-10T00:18:54;48.63;;;22.70;;
77598;SDS011;66758;52.078;5.070;2023-05-10T00:21:19;48.13;;;23.00;;
77598;SDS011;66758;52.078;5.070;2023-05-10T00:23:46;48.13;;;22.10;;
77598;SDS011;66758;52.078;5.070;2023-05-10T00:26:11;49.15;;;21.48;;
77598;SDS011;66758;52.078;5.070;2023-05-10T00:28:38;50.67;;;22.92;;
77598;SDS011;66758;52.078;5.070;2023-05-10T00:31:03;56.27;;;23.23;;
77598;SDS011;66758;52.078;5.070;2023-05-10T00:33:30;53.03;;;23.50;;
77598;SDS011;66758;52.078;5.070;2023-05-10T00:35:56;61.53;;;23.67;;
77598;SDS011;66758;52.078;5.070;2023-05-10T00:38:21;58.20;;;23.20;;
77598;SDS011;66758;52.078;5.070;2023-05-10T00:40:46;55.97;;;23.53;;
77598;SDS011;66758;52.078;5.070;2023-05-10T00:43:12;60.23;;;24.90;;
77598;SDS011;66758;52.078;5.070;2023-05-10T00:45:37;68.23;;;25.17;;
77598;SDS011;66758;52.078;5.070;2023-05-10T00:48:04;61.20;;;24.17;;
77598;SDS011;66758;52.078;5.070;2023-05-10T00:50:30;57.87;;;23.37;;
77598;SDS011;66758;52.078;5.070;2023-05-10T00:52:55;58.35;;;23.08;;
77598;SDS011;66758;52.078;5.070;2023-05-10T00:55:21;56.75;;;22.55;;
77598;SDS011;66758;52.078;5.070;2023-05-10T00:57:47;56.27;;;22.67;;
77598;SDS011;66758;52.078;5.070;2023-05-10T01:00:12;60.23;;;22.10;;
77598;SDS011;66758;52.078;5.070;2023-05-10T01:02:42;52.95;;;21.80;;
77598;SDS011;66758;52.078;5.070;2023-05-10T01:05:08;53.33;;;22.17;;
77598;SDS011;66758;52.078;5.070;2023-05-10T01:07:33;62.65;;;23.23;;
77598;SDS011;66758;52.078;5.070;2023-05-10T01:10:05;57.00;;;22.57;;
77598;SDS011;66758;52.078;5.070;2023-05-10T01:12:30;53.60;;;22.88;;
77598;SDS011;66758;52.078;5.070;2023-05-10T01:14:56;56.10;;;21.00;;
77598;SDS011;66758;52.078;5.070;2023-05-10T01:17:23;58.33;;;23.10;;
77598;SDS011;66758;52.078;5.070;2023-05-10T01:19:49;60.07;;;22.47;;
77598;SDS011;66758;52.078;5.070;2023-05-10T01:25:11;57.65;;;21.67;;
77598;SDS011;66758;52.078;5.070;2023-05-10T01:33:15;68.33;;;23.73;;
77598;SDS011;66758;52.078;5.070;2023-05-10T01:35:45;75.25;;;24.67;;
77598;SDS011;66758;52.078;5.070;2023-05-10T01:38:17;70.00;;;23.58;;
77598;SDS011;66758;52.078;5.070;2023-05-10T01:40:47;79.55;;;25.80;;
77598;SDS011;66758;52.078;5.070;2023-05-10T01:43:17;81.70;;;24.20;;
77598;SDS011;66758;52.078;5.070;2023-05-10T01:45:50;102.83;;;27.60;;
77598;SDS011;66758;52.078;5.070;2023-05-10T01:48:16;90.65;;;25.73;;
77598;SDS011;66758;52.078;5.070;2023-05-10T01:50:43;104.60;;;26.50;;
77598;SDS011;66758;52.078;5.070;2023-05-10T01:53:11;85.75;;;24.70;;
77598;SDS011;66758;52.078;5.070;2023-05-10T01:55:56;102.15;;;25.88;;
77598;SDS011;66758;52.078;5.070;2023-05-10T01:58:25;90.17;;;24.77;;
77598;SDS011;66758;52.078;5.070;2023-05-10T02:00:52;96.07;;;25.77;;
77598;SDS011;66758;52.078;5.070;2023-05-10T02:03:20;84.30;;;25.50;;
77598;SDS011;66758;52.078;5.070;2023-05-10T02:05:47;95.78;;;25.92;;
77598;SDS011;66758;52.078;5.070;2023-05-10T02:08:13;88.63;;;25.08;;
77598;SDS011;66758;52.078;5.070;2023-05-10T02:10:39;94.37;;;27.47;;
77598;SDS011;66758;52.078;5.070;2023-05-10T02:13:04;93.87;;;27.73;;
77598;SDS011;66758;52.078;5.070;2023-05-10T02:15:31;84.32;;;27.63;;
77598;SDS011;66758;52.078;5.070;2023-05-10T02:17:57;86.93;;;29.48;;
77598;SDS011;66758;52.078;5.070;2023-05-10T02:20:23;78.45;;;28.73;;
77598;SDS011;66758;52.078;5.070;2023-05-10T02:22:50;81.68;;;29.58;;
77598;SDS011;66758;52.078;5.070;2023-05-10T02:25:17;77.93;;;30.13;;
77598;SDS011;66758;52.078;5.070;2023-05-10T02:27:44;73.80;;;28.58;;
77598;SDS011;66758;52.078;5.070;2023-05-10T02:30:16;76.47;;;30.23;;
77598;SDS011;66758;52.078;5.070;2023-05-10T02:32:41;79.80;;;32.92;;
77598;SDS011;66758;52.078;5.070;2023-05-10T02:35:08;73.57;;;30.75;;
77598;SDS011;66758;52.078;5.070;2023-05-10T02:37:34;81.37;;;30.70;;
77598;SDS011;66758;52.078;5.070;2023-05-10T02:40:00;79.13;;;30.08;;
77598;SDS011;66758;52.078;5.070;2023-05-10T02:42:28;81.50;;;31.45;;
77598;SDS011;66758;52.078;5.070;2023-05-10T02:44:55;79.82;;;28.65;;
77598;SDS011;66758;52.078;5.070;2023-05-10T02:47:22;85.30;;;29.92;;
77598;SDS011;66758;52.078;5.070;2023-05-10T02:49:47;81.80;;;27.73;;
77598;SDS011;66758;52.078;5.070;2023-05-10T02:52:14;86.00;;;30.63;;
77598;SDS011;66758;52.078;5.070;2023-05-10T02:54:45;84.68;;;28.10;;
77598;SDS011;66758;52.078;5.070;2023-05-10T02:57:14;78.55;;;27.02;;
77598;SDS011;66758;52.078;5.070;2023-05-10T02:59:40;75.50;;;26.83;;
77598;SDS011;66758;52.078;5.070;2023-05-10T03:02:07;79.78;;;28.55;;
77598;SDS011;66758;52.078;5.070;2023-05-10T03:04:34;88.35;;;28.90;;
77598;SDS011;66758;52.078;5.070;2023-05-10T03:06:59;84.67;;;28.40;;
77598;SDS011;66758;52.078;5.070;2023-05-10T03:09:24;97.53;;;30.87;;
77598;SDS011;66758;52.078;5.070;2023-05-10T03:17:04;83.70;;;28.52;;
77598;SDS011;66758;52.078;5.070;2023-05-10T03:19:32;92.00;;;29.80;;
77598;SDS011;66758;52.078;5.070;2023-05-10T03:22:03;88.38;;;29.55;;
77598;SDS011;66758;52.078;5.070;2023-05-10T03:24:29;97.80;;;29.67;;
77598;SDS011;66758;52.078;5.070;2023-05-10T03:26:55;93.70;;;29.20;;
77598;SDS011;66758;52.078;5.070;2023-05-10T03:29:21;97.03;;;30.60;;
77598;SDS011;66758;52.078;5.070;2023-05-10T03:31:49;100.65;;;29.55;;
77598;SDS011;66758;52.078;5.070;2023-05-10T03:34:14;97.97;;;28.75;;
77598;SDS011;66758;52.078;5.070;2023-05-10T03:36:39;98.17;;;27.73;;
77598;SDS011;66758;52.078;5.070;2023-05-10T03:39:04;94.47;;;29.80;;
77598;SDS011;66758;52.078;5.070;2023-05-10T03:41:30;89.93;;;28.80;;
77598;SDS011;66758;52.078;5.070;2023-05-10T03:43:55;94.80;;;31.60;;
77598;SDS011;66758;52.078;5.070;2023-05-10T03:46:20;96.07;;;31.37;;
77598;SDS011;66758;52.078;5.070;2023-05-10T03:48:45;83.30;;;28.20;;
77598;SDS011;66758;52.078;5.070;2023-05-10T03:51:11;97.50;;;30.57;;
77598;SDS011;66758;52.078;5.070;2023-05-10T03:53:36;90.77;;;29.60;;
77598;SDS011;66758;52.078;5.070;2023-05-10T03:56:01;93.70;;;31.23;;
77598;SDS011;66758;52.078;5.070;2023-05-10T03:58:26;90.80;;;31.53;;
77598;SDS011;66758;52.078;5.070;2023-05-10T04:00:52;94.15;;;32.83;;
77598;SDS011;66758;52.078;5.070;2023-05-10T04:03:19;97.40;;;33.30;;
77598;SDS011;66758;52.078;5.070;2023-05-10T04:05:45;82.03;;;33.17;;
77598;SDS011;66758;52.078;5.070;2023-05-10T04:08:10;92.30;;;35.53;;
77598;SDS011;66758;52.078;5.070;2023-05-10T04:10:37;102.23;;;37.10;;
77598;SDS011;66758;52.078;5.070;2023-05-10T04:13:03;86.30;;;31.33;;
77598;SDS011;66758;52.078;5.070;2023-05-10T04:15:28;108.83;;;37.90;;
77598;SDS011;66758;52.078;5.070;2023-05-10T04:17:53;91.63;;;35.80;;
77598;SDS011;66758;52.078;5.070;2023-05-10T04:20:19;97.27;;;36.60;;
77598;SDS011;66758;52.078;5.070;2023-05-10T04:22:44;99.23;;;36.53;;
77598;SDS011;66758;52.078;5.070;2023-05-10T04:25:11;95.03;;;37.03;;
77598;SDS011;66758;52.078;5.070;2023-05-10T04:27:39;107.22;;;41.33;;
77598;SDS011;66758;52.078;5.070;2023-05-10T04:30:04;104.73;;;39.43;;
77598;SDS011;66758;52.078;5.070;2023-05-10T04:32:31;93.22;;;39.40;;
77598;SDS011;66758;52.078;5.070;2023-05-10T04:34:57;81.53;;;34.33;;
77598;SDS011;66758;52.078;5.070;2023-05-10T04:37:22;96.77;;;38.10;;
77598;SDS011;66758;52.078;5.070;2023-05-10T04:39:47;92.13;;;36.23;;
77598;SDS011;66758;52.078;5.070;2023-05-10T04:42:13;101.33;;;40.80;;
77598;SDS011;66758;52.078;5.070;2023-05-10T04:44:41;99.70;;;38.90;;
77598;SDS011;66758;52.078;5.070;2023-05-10T04:47:06;104.35;;;40.22;;
77598;SDS011;66758;52.078;5.070;2023-05-10T04:49:32;93.97;;;38.50;;
77598;SDS011;66758;52.078;5.070;2023-05-10T04:51:57;91.37;;;37.07;;
77598;SDS011;66758;52.078;5.070;2023-05-10T04:54:23;91.30;;;36.80;;
77598;SDS011;66758;52.078;5.070;2023-05-10T04:56:48;106.17;;;37.93;;
77598;SDS011;66758;52.078;5.070;2023-05-10T04:59:14;94.57;;;35.50;;
77598;SDS011;66758;52.078;5.070;2023-05-10T05:01:46;108.00;;;36.15;;
77598;SDS011;66758;52.078;5.070;2023-05-10T05:04:13;102.07;;;37.67;;
77598;SDS011;66758;52.078;5.070;2023-05-10T05:06:39;101.63;;;34.08;;
77598;SDS011;66758;52.078;5.070;2023-05-10T05:09:04;93.57;;;33.70;;
77598;SDS011;66758;52.078;5.070;2023-05-10T05:11:30;112.30;;;38.07;;
77598;SDS011;66758;52.078;5.070;2023-05-10T05:13:56;115.27;;;37.30;;
77598;SDS011;66758;52.078;5.070;2023-05-10T05:16:23;119.15;;;38.63;;
77598;SDS011;66758;52.078;5.070;2023-05-10T05:18:49;102.95;;;32.42;;
77598;SDS011;66758;52.078;5.070;2023-05-10T05:21:17;121.87;;;36.70;;
77598;SDS011;66758;52.078;5.070;2023-05-10T05:23:43;113.50;;;36.67;;
77598;SDS011;66758;52.078;5.070;2023-05-10T05:26:09;105.23;;;32.53;;
77598;SDS011;66758;52.078;5.070;2023-05-10T05:28:34;91.07;;;30.08;;
77598;SDS011;66758;52.078;5.070;2023-05-10T05:31:02;98.20;;;35.83;;
77598;SDS011;66758;52.078;5.070;2023-05-10T05:33:27;89.10;;;31.40;;
77598;SDS011;66758;52.078;5.070;2023-05-10T05:35:54;73.80;;;27.43;;
77598;SDS011;66758;52.078;5.070;2023-05-10T05:38:19;73.50;;;27.15;;
77598;SDS011;66758;52.078;5.070;2023-05-10T05:40:45;77.47;;;27.13;;
77598;SDS011;66758;52.078;5.070;2023-05-10T05:43:12;70.88;;;25.60;;
77598;SDS011;66758;52.078;5.070;2023-05-10T05:45:39;66.13;;;23.00;;
77598;SDS011;66758;52.078;5.070;2023-05-10T05:48:08;69.80;;;24.52;;
77598;SDS011;66758;52.078;5.070;2023-05-10T05:50:33;74.68;;;25.80;;
77598;SDS011;66758;52.078;5.070;2023-05-10T05:52:59;76.67;;;24.77;;
77598;SDS011;66758;52.078;5.070;2023-05-10T05:55:24;62.93;;;22.87;;
77598;SDS011;66758;52.078;5.070;2023-05-10T05:57:51;68.32;;;24.27;;
77598;SDS011;66758;52.078;5.070;2023-05-10T06:00:16;65.63;;;22.07;;
77598;SDS011;66758;52.078;5.070;2023-05-10T06:02:42;62.73;;;23.90;;
77598;SDS011;66758;52.078;5.070;2023-05-10T06:05:07;64.70;;;23.73;;
77598;SDS011;66758;52.078;5.070;2023-05-10T06:07:33;57.07;;;23.03;;
77598;SDS011;66758;52.078;5.070;2023-05-10T06:09:59;61.58;;;22.40;;
77598;SDS011;66758;52.078;5.070;2023-05-10T06:12:24;41.63;;;17.30;;
77598;SDS011;66758;52.078;5.070;2023-05-10T06:14:50;46.37;;;16.93;;
77598;SDS011;66758;52.078;5.070;2023-05-10T06:17:15;45.97;;;16.73;;
77598;SDS011;66758;52.078;5.070;2023-05-10T06:19:41;41.33;;;15.32;;
77598;SDS011;66758;52.078;5.070;2023-05-10T06:22:06;43.30;;;17.73;;
77598;SDS011;66758;52.078;5.070;2023-05-10T06:24:32;32.60;;;15.17;;
77598;SDS011;66758;52.078;5.070;2023-05-10T06:26:57;33.50;;;14.67;;
77598;SDS011;66758;52.078;5.070;2023-05-10T06:29:25;32.03;;;13.80;;
77598;SDS011;66758;52.078;5.070;2023-05-10T06:31:51;28.83;;;13.57;;
77598;SDS011;66758;52.078;5.070;2023-05-10T06:34:16;27.83;;;12.97;;
77598;SDS011;66758;52.078;5.070;2023-05-10T06:36:42;25.77;;;12.33;;
77598;SDS011;66758;52.078;5.070;2023-05-10T06:39:07;25.37;;;10.43;;
77598;SDS011;66758;52.078;5.070;2023-05-10T06:41:32;22.97;;;11.23;;
77598;SDS011;66758;52.078;5.070;2023-05-10T06:43:57;24.83;;;11.00;;
77598;SDS011;66758;52.078;5.070;2023-05-10T06:46:23;26.00;;;11.00;;
77598;SDS011;66758;52.078;5.070;2023-05-10T06:48:48;22.83;;;11.32;;
77598;SDS011;66758;52.078;5.070;2023-05-10T06:51:14;20.50;;;10.13;;
77598;SDS011;66758;52.078;5.070;2023-05-10T06:53:39;21.42;;;10.45;;
77598;SDS011;66758;52.078;5.070;2023-05-10T06:56:04;19.20;;;9.27;;
77598;SDS011;66758;52.078;5.070;2023-05-10T06:58:30;20.70;;;10.00;;
77598;SDS011;66758;52.078;5.070;2023-05-10T07:01:01;18.33;;;9.17;;
77598;SDS011;66758;52.078;5.070;2023-05-10T07:03:26;20.33;;;10.02;;
77598;SDS011;66758;52.078;5.070;2023-05-10T07:05:51;17.80;;;8.53;;
77598;SDS011;66758;52.078;5.070;2023-05-10T07:08:17;17.53;;;9.90;;
77598;SDS011;66758;52.078;5.070;2023-05-10T07:10:43;17.67;;;9.43;;
77598;SDS011;66758;52.078;5.070;2023-05-10T07:13:10;18.47;;;8.77;;
77598;SDS011;66758;52.078;5.070;2023-05-10T07:15:35;15.80;;;8.35;;
77598;SDS011;66758;52.078;5.070;2023-05-10T07:18:00;15.67;;;6.87;;
77598;SDS011;66758;52.078;5.070;2023-05-10T07:20:26;14.07;;;7.27;;
77598;SDS011;66758;52.078;5.070;2023-05-10T07:22:52;18.80;;;8.93;;
77598;SDS011;66758;52.078;5.070;2023-05-10T07:25:19;17.52;;;8.00;;
77598;SDS011;66758;52.078;5.070;2023-05-10T07:27:45;19.73;;;7.80;;
77598;SDS011;66758;52.078;5.070;2023-05-10T07:30:11;15.60;;;8.07;;
77598;SDS011;66758;52.078;5.070;2023-05-10T07:32:36;16.53;;;8.37;;
77598;SDS011;66758;52.078;5.070;2023-05-10T07:35:02;16.80;;;8.53;;
77598;SDS011;66758;52.078;5.070;2023-05-10T07:37:28;17.27;;;8.93;;
77598;SDS011;66758;52.078;5.070;2023-05-10T07:39:55;17.85;;;8.88;;
77598;SDS011;66758;52.078;5.070;2023-05-10T07:42:27;20.13;;;9.67;;
77598;SDS011;66758;52.078;5.070;2023-05-10T07:44:55;16.37;;;8.03;;
77598;SDS011;66758;52.078;5.070;2023-05-10T07:47:20;17.17;;;8.10;;
77598;SDS011;66758;52.078;5.070;2023-05-10T07:49:46;19.88;;;9.05;;
77598;SDS011;66758;52.078;5.070;2023-05-10T07:52:11;17.63;;;7.43;;
77598;SDS011;66758;52.078;5.070;2023-05-10T07:54:36;18.50;;;8.93;;
77598;SDS011;66758;52.078;5.070;2023-05-10T07:57:02;18.75;;;9.07;;
77598;SDS011;66758;52.078;5.070;2023-05-10T07:59:28;17.30;;;7.97;;
77598;SDS011;66758;52.078;5.070;2023-05-10T08:01:53;19.17;;;9.77;;
77598;SDS011;66758;52.078;5.070;2023-05-10T08:04:18;15.93;;;7.83;;
77598;SDS011;66758;52.078;5.070;2023-05-10T08:06:43;18.30;;;8.70;;
77598;SDS011;66758;52.078;5.070;2023-05-10T08:09:09;16.63;;;7.87;;
77598;SDS011;66758;52.078;5.070;2023-05-10T08:11:34;13.97;;;7.60;;
77598;SDS011;66758;52.078;5.070;2023-05-10T08:14:00;13.77;;;7.35;;
77598;SDS011;66758;52.078;5.070;2023-05-10T08:16:25;15.00;;;7.47;;
77598;SDS011;66758;52.078;5.070;2023-05-10T08:18:52;15.93;;;7.37;;
77598;SDS011;66758;52.078;5.070;2023-05-10T08:21:17;15.80;;;7.55;;
77598;SDS011;66758;52.078;5.070;2023-05-10T08:23:42;16.43;;;7.80;;
77598;SDS011;66758;52.078;5.070;2023-05-10T08:26:08;17.17;;;8.50;;
77598;SDS011;66758;52.078;5.070;2023-05-10T08:28:34;12.63;;;6.63;;
77598;SDS011;66758;52.078;5.070;2023-05-10T08:30:59;12.43;;;6.70;;
77598;SDS011;66758;52.078;5.070;2023-05-10T08:33:25;14.10;;;7.37;;
77598;SDS011;66758;52.078;5.070;2023-05-10T08:35:52;12.02;;;6.43;;
77598;SDS011;66758;52.078;5.070;2023-05-10T08:38:17;10.27;;;5.73;;
77598;SDS011;66758;52.078;5.070;2023-05-10T08:40:43;13.40;;;6.20;;
77598;SDS011;66758;52.078;5.070;2023-05-10T08:43:12;12.15;;;6.50;;
77598;SDS011;66758;52.078;5.070;2023-05-10T08:45:40;11.60;;;6.05;;
77598;SDS011;66758;52.078;5.070;2023-05-10T08:48:07;11.32;;;6.28;;
77598;SDS011;66758;52.078;5.070;2023-05-10T08:50:36;9.55;;;5.80;;
77598;SDS011;66758;52.078;5.070;2023-05-10T08:53:03;9.53;;;4.83;;
77598;SDS011;66758;52.078;5.070;2023-05-10T08:55:30;9.23;;;5.47;;
77598;SDS011;66758;52.078;5.070;2023-05-10T08:58:00;9.50;;;5.15;;
77598;SDS011;66758;52.078;5.070;2023-05-10T09:00:36;8.50;;;4.90;;
77598;SDS011;66758;52.078;5.070;2023-05-10T09:03:04;7.87;;;4.20;;
77598;SDS011;66758;52.078;5.070;2023-05-10T09:05:29;7.97;;;4.60;;
77598;SDS011;66758;52.078;5.070;2023-05-10T09:07:55;8.80;;;4.87;;
77598;SDS011;66758;52.078;5.070;2023-05-10T09:10:21;7.13;;;4.07;;
77598;SDS011;66758;52.078;5.070;2023-05-10T09:12:51;7.20;;;4.33;;
77598;SDS011;66758;52.078;5.070;2023-05-10T09:15:16;7.55;;;4.20;;
77598;SDS011;66758;52.078;5.070;2023-05-10T09:17:44;9.18;;;4.35;;
77598;SDS011;66758;52.078;5.070;2023-05-10T09:20:11;6.85;;;3.80;;
77598;SDS011;66758;52.078;5.070;2023-05-10T09:22:37;5.43;;;3.40;;
77598;SDS011;66758;52.078;5.070;2023-05-10T09:27:32;7.70;;;3.45;;
77598;SDS011;66758;52.078;5.070;2023-05-10T09:29:58;6.43;;;3.47;;
77598;SDS011;66758;52.078;5.070;2023-05-10T09:32:45;5.15;;;2.83;;
77598;SDS011;66758;52.078;5.070;2023-05-10T09:35:09;5.03;;;2.83;;
77598;SDS011;66758;52.078;5.070;2023-05-10T09:37:39;5.72;;;3.08;;
77598;SDS011;66758;52.078;5.070;2023-05-10T09:40:06;7.30;;;3.08;;
77598;SDS011;66758;52.078;5.070;2023-05-10T09:42:41;6.07;;;2.90;;
77598;SDS011;66758;52.078;5.070;2023-05-10T09:45:07;8.98;;;4.50;;
77598;SDS011;66758;52.078;5.070;2023-05-10T09:47:34;10.45;;;5.05;;
77598;SDS011;66758;52.078;5.070;2023-05-10T09:50:00;8.82;;;4.82;;
77598;SDS011;66758;52.078;5.070;2023-05-10T09:52:51;8.35;;;4.60;;
77598;SDS011;66758;52.078;5.070;2023-05-10T09:55:15;8.00;;;4.03;;
77598;SDS011;66758;52.078;5.070;2023-05-10T09:57:43;7.00;;;4.10;;
77598;SDS011;66758;52.078;5.070;2023-05-10T10:00:08;10.00;;;4.80;;
77598;SDS011;66758;52.078;5.070;2023-05-10T10:02:35;8.90;;;4.75;;
77598;SDS011;66758;52.078;5.070;2023-05-10T10:05:02;9.57;;;4.57;;
77598;SDS011;66758;52.078;5.070;2023-05-10T10:07:30;7.75;;;4.43;;
77598;SDS011;66758;52.078;5.070;2023-05-10T10:09:56;9.95;;;4.88;;
77598;SDS011;66758;52.078;5.070;2023-05-10T10:12:22;8.05;;;4.60;;
77598;SDS011;66758;52.078;5.070;2023-05-10T10:14:48;7.87;;;4.67;;
77598;SDS011;66758;52.078;5.070;2023-05-10T10:17:17;8.65;;;5.00;;
77598;SDS011;66758;52.078;5.070;2023-05-10T10:19:44;7.77;;;4.83;;
77598;SDS011;66758;52.078;5.070;2023-05-10T10:22:11;10.48;;;5.18;;
77598;SDS011;66758;52.078;5.070;2023-05-10T10:24:38;8.98;;;5.00;;
77598;SDS011;66758;52.078;5.070;2023-05-10T10:27:21;10.15;;;5.40;;
77598;SDS011;66758;52.078;5.070;2023-05-10T10:30:00;10.85;;;5.93;;
77598;SDS011;66758;52.078;5.070;2023-05-10T10:32:35;10.50;;;5.40;;
77598;SDS011;66758;52.078;5.070;2023-05-10T10:35:04;8.52;;;4.80;;
77598;SDS011;66758;52.078;5.070;2023-05-10T10:37:45;9.30;;;5.40;;
77598;SDS011;66758;52.078;5.070;2023-05-10T10:40:30;8.97;;;4.30;;
77598;SDS011;66758;52.078;5.070;2023-05-10T10:42:56;8.27;;;4.68;;
77598;SDS011;66758;52.078;5.070;2023-05-10T10:45:29;7.45;;;3.85;;
77598;SDS011;66758;52.078;5.070;2023-05-10T10:50:44;6.90;;;4.20;;
77598;SDS011;66758;52.078;5.070;2023-05-10T10:53:11;6.73;;;4.20;;
77598;SDS011;66758;52.078;5.070;2023-05-10T10:55:44;7.50;;;4.35;;
77598;SDS011;66758;52.078;5.070;2023-05-10T10:58:12;8.93;;;4.43;;
77598;SDS011;66758;52.078;5.070;2023-05-10T11:00:59;6.90;;;4.22;;
77598;SDS011;66758;52.078;5.070;2023-05-10T11:03:33;8.95;;;4.53;;
77598;SDS011;66758;52.078;5.070;2023-05-10T11:06:00;8.00;;;4.37;;
77598;SDS011;66758;52.078;5.070;2023-05-10T11:08:30;8.02;;;4.10;;
77598;SDS011;66758;52.078;5.070;2023-05-10T11:13:31;6.50;;;3.65;;
77598;SDS011;66758;52.078;5.070;2023-05-10T11:15:56;5.43;;;3.10;;
77598;SDS011;66758;52.078;5.070;2023-05-10T11:18:26;5.28;;;2.97;;
77598;SDS011;66758;52.078;5.070;2023-05-10T11:20:58;8.95;;;3.55;;
77598;SDS011;66758;52.078;5.070;2023-05-10T11:23:28;5.43;;;3.13;;
77598;SDS011;66758;52.078;5.070;2023-05-10T11:25:54;5.78;;;3.13;;
77598;SDS011;66758;52.078;5.070;2023-05-10T11:28:20;8.30;;;3.85;;
77598;SDS011;66758;52.078;5.070;2023-05-10T11:30:46;7.50;;;3.27;;
77598;SDS011;66758;52.078;5.070;2023-05-10T11:36:14;7.32;;;3.58;;
77598;SDS011;66758;52.078;5.070;2023-05-10T11:38:41;7.17;;;3.33;;
77598;SDS011;66758;52.078;5.070;2023-05-10T11:41:08;8.07;;;4.25;;
77598;SDS011;66758;52.078;5.070;2023-05-10T11:43:39;5.75;;;4.10;;
77598;SDS011;66758;52.078;5.070;2023-05-10T11:46:05;9.70;;;5.10;;
77598;SDS011;66758;52.078;5.070;2023-05-10T11:48:33;9.20;;;6.67;;
77598;SDS011;66758;52.078;5.070;2023-05-10T11:51:00;8.68;;;6.97;;
77598;SDS011;66758;52.078;5.070;2023-05-10T11:53:27;10.13;;;7.30;;
77598;SDS011;66758;52.078;5.070;2023-05-10T11:55:52;10.57;;;7.43;;
77598;SDS011;66758;52.078;5.070;2023-05-10T11:58:18;8.27;;;6.50;;
77598;SDS011;66758;52.078;5.070;2023-05-10T12:00:44;9.18;;;6.60;;
77598;SDS011;66758;52.078;5.070;2023-05-10T12:03:11;8.65;;;6.70;;
77598;SDS011;66758;52.078;5.070;2023-05-10T12:05:37;8.13;;;6.27;;
77598;SDS011;66758;52.078;5.070;2023-05-10T12:08:15;11.48;;;8.13;;
77598;SDS011;66758;52.078;5.070;2023-05-10T12:10:41;10.63;;;7.28;;
77598;SDS011;66758;52.078;5.070;2023-05-10T12:13:15;12.03;;;7.17;;
77598;SDS011;66758;52.078;5.070;2023-05-10T12:15:41;14.27;;;7.22;;
77598;SDS011;66758;52.078;5.070;2023-05-10T12:18:08;20.30;;;8.60;;
77598;SDS011;66758;52.078;5.070;2023-05-10T12:20:35;21.97;;;9.53;;
77598;SDS011;66758;52.078;5.070;2023-05-10T12:23:08;18.20;;;10.48;;
77598;SDS011;66758;52.078;5.070;2023-05-10T12:25:34;19.48;;;9.88;;
77598;SDS011;66758;52.078;5.070;2023-05-10T12:28:00;24.25;;;11.90;;
77598;SDS011;66758;52.078;5.070;2023-05-10T12:30:45;29.42;;;12.27;;
77598;SDS011;66758;52.078;5.070;2023-05-10T12:33:11;30.07;;;13.67;;
77598;SDS011;66758;52.078;5.070;2023-05-10T12:35:47;23.35;;;11.85;;
77598;SDS011;66758;52.078;5.070;2023-05-10T12:41:01;33.13;;;12.52;;
77598;SDS011;66758;52.078;5.070;2023-05-10T12:43:26;30.05;;;12.57;;
77598;SDS011;66758;52.078;5.070;2023-05-10T12:45:52;25.97;;;11.63;;
77598;SDS011;66758;52.078;5.070;2023-05-10T12:48:17;35.53;;;14.70;;
77598;SDS011;66758;52.078;5.070;2023-05-10T12:50:48;37.10;;;12.75;;
77598;SDS011;66758;52.078;5.070;2023-05-10T12:53:14;28.53;;;12.63;;
77598;SDS011;66758;52.078;5.070;2023-05-10T12:55:40;30.25;;;12.93;;
77598;SDS011;66758;52.078;5.070;2023-05-10T12:58:07;31.33;;;12.52;;
77598;SDS011;66758;52.078;5.070;2023-05-10T13:00:34;27.52;;;11.52;;
77598;SDS011;66758;52.078;5.070;2023-05-10T13:03:01;30.75;;;12.05;;
77598;SDS011;66758;52.078;5.070;2023-05-10T13:05:26;32.53;;;13.30;;
77598;SDS011;66758;52.078;5.070;2023-05-10T13:07:52;33.30;;;13.37;;
77598;SDS011;66758;52.078;5.070;2023-05-10T13:10:17;29.50;;;12.07;;
77598;SDS011;66758;52.078;5.070;2023-05-10T13:12:42;28.42;;;12.93;;
77598;SDS011;66758;52.078;5.070;2023-05-10T13:15:08;28.47;;;13.40;;
77598;SDS011;66758;52.078;5.070;2023-05-10T13:17:33;20.03;;;10.50;;
77598;SDS011;66758;52.078;5.070;2023-05-10T13:20:00;27.05;;;12.65;;
77598;SDS011;66758;52.078;5.070;2023-05-10T13:22:32;25.65;;;11.43;;
77598;SDS011;66758;52.078;5.070;2023-05-10T13:24:59;23.70;;;12.38;;
77598;SDS011;66758;52.078;5.070;2023-05-10T13:27:26;23.80;;;10.40;;
77598;SDS011;66758;52.078;5.070;2023-05-10T13:29:52;23.00;;;10.67;;
77598;SDS011;66758;52.078;5.070;2023-05-10T13:32:20;23.48;;;11.13;;
77598;SDS011;66758;52.078;5.070;2023-05-10T13:34:45;21.50;;;10.43;;
77598;SDS011;66758;52.078;5.070;2023-05-10T13:37:11;18.80;;;9.50;;
77598;SDS011;66758;52.078;5.070;2023-05-10T13:39:36;22.35;;;11.15;;
77598;SDS011;66758;52.078;5.070;2023-05-10T13:42:02;20.37;;;10.23;;
77598;SDS011;66758;52.078;5.070;2023-05-10T13:44:28;22.42;;;10.43;;
77598;SDS011;66758;52.078;5.070;2023-05-10T13:46:53;21.40;;;9.53;;
77598;SDS011;66758;52.078;5.070;2023-05-10T13:49:24;17.98;;;9.88;;
77598;SDS011;66758;52.078;5.070;2023-05-10T13:51:50;20.93;;;10.40;;
77598;SDS011;66758;52.078;5.070;2023-05-10T13:54:16;21.20;;;10.23;;
77598;SDS011;66758;52.078;5.070;2023-05-10T13:56:44;20.13;;;10.60;;
77598;SDS011;66758;52.078;5.070;2023-05-10T13:59:12;20.15;;;10.10;;
77598;SDS011;66758;52.078;5.070;2023-05-10T14:01:40;23.77;;;11.48;;
77598;SDS011;66758;52.078;5.070;2023-05-10T14:04:08;23.85;;;10.93;;
77598;SDS011;66758;52.078;5.070;2023-05-10T14:06:35;22.92;;;12.13;;
77598;SDS011;66758;52.078;5.070;2023-05-10T14:09:03;20.23;;;11.20;;
77598;SDS011;66758;52.078;5.070;2023-05-10T14:11:31;23.27;;;9.27;;
77598;SDS011;66758;52.078;5.070;2023-05-10T14:13:56;16.42;;;8.95;;
77598;SDS011;66758;52.078;5.070;2023-05-10T14:16:21;18.37;;;9.90;;
77598;SDS011;66758;52.078;5.070;2023-05-10T14:18:47;19.57;;;9.53;;
77598;SDS011;66758;52.078;5.070;2023-05-10T14:21:12;20.80;;;10.73;;
77598;SDS011;66758;52.078;5.070;2023-05-10T14:23:39;21.13;;;10.73;;
77598;SDS011;66758;52.078;5.070;2023-05-10T14:26:04;19.27;;;10.40;;
77598;SDS011;66758;52.078;5.070;2023-05-10T14:28:36;20.37;;;9.20;;
77598;SDS011;66758;52.078;5.070;2023-05-10T14:31:08;17.85;;;9.95;;
77598;SDS011;66758;52.078;5.070;2023-05-10T14:33:34;17.63;;;9.90;;
77598;SDS011;66758;52.078;5.070;2023-05-10T14:36:00;18.53;;;8.60;;
77598;SDS011;66758;52.078;5.070;2023-05-10T14:38:32;17.50;;;8.97;;
77598;SDS011;66758;52.078;5.070;2023-05-10T14:40:59;16.20;;;8.00;;
77598;SDS011;66758;52.078;5.070;2023-05-10T14:43:24;18.23;;;9.23;;
77598;SDS011;66758;52.078;5.070;2023-05-10T14:45:50;18.52;;;8.63;;
77598;SDS011;66758;52.078;5.070;2023-05-10T14:48:15;19.93;;;8.80;;
77598;SDS011;66758;52.078;5.070;2023-05-10T14:50:43;15.57;;;8.20;;
77598;SDS011;66758;52.078;5.070;2023-05-10T14:55:52;18.23;;;9.33;;
77598;SDS011;66758;52.078;5.070;2023-05-10T14:58:18;17.33;;;9.60;;